sensor_id;sensor_type;location;lat;lon;timestamp;P1;durP1;ratioP1;P2;durP2;ratioP2
74900;SDS011;63461;51.416;6.758;2023-11-19T00:06:19;10.70;;;4.77;;
74900;SDS011;63461;51.416;6.758;2023-11-19T00:09:36;7.03;;;4.53;;
74900;SDS011;63461;51.416;6.758;2023-11-19T00:12:18;7.23;;;4.40;;
74900;SDS011;63461;51.416;6.758;2023-11-19T00:16:00;11.57;;;4.63;;
74900;SDS011;63461;51.416;6.758;2023-11-19T00:19:04;7.83;;;4.57;;
74900;SDS011;63461;51.416;6.758;2023-11-19T00:21:59;7.77;;;4.40;;
74900;SDS011;63461;51.416;6.758;2023-11-19T00:25:21;6.00;;;3.50;;
74900;SDS011;63461;51.416;6.758;2023-11-19T00:28:30;4.87;;;3.13;;
74900;SDS011;63461;51.416;6.758;2023-11-19T00:31:43;5.13;;;3.07;;
74900;SDS011;63461;51.416;6.758;2023-11-19T00:34:33;6.60;;;2.63;;
74900;SDS011;63461;51.416;6.758;2023-11-19T01:45:26;5.83;;;2.80;;
74900;SDS011;63461;51.416;6.758;2023-11-19T01:49:04;4.30;;;2.33;;
74900;SDS011;63461;51.416;6.758;2023-11-19T01:52:05;5.20;;;2.57;;
74900;SDS011;63461;51.416;6.758;2023-11-19T02:02:01;6.67;;;2.67;;
74900;SDS011;63461;51.416;6.758;2023-11-19T02:14:32;6.30;;;2.50;;
74900;SDS011;63461;51.416;6.758;2023-11-19T02:17:04;4.43;;;2.57;;
74900;SDS011;63461;51.416;6.758;2023-11-19T02:19:35;6.20;;;2.87;;
74900;SDS011;63461;51.416;6.758;2023-11-19T02:22:04;7.07;;;2.10;;
74900;SDS011;63461;51.416;6.758;2023-11-19T02:24:33;7.57;;;2.30;;
74900;SDS011;63461;51.416;6.758;2023-11-19T02:27:02;8.47;;;2.03;;
74900;SDS011;63461;51.416;6.758;2023-11-19T02:29:51;6.93;;;2.50;;
74900;SDS011;63461;51.416;6.758;2023-11-19T02:32:23;7.60;;;2.20;;
74900;SDS011;63461;51.416;6.758;2023-11-19T02:34:52;14.73;;;2.40;;
74900;SDS011;63461;51.416;6.758;2023-11-19T02:37:18;10.83;;;2.30;;
74900;SDS011;63461;51.416;6.758;2023-11-19T02:40:25;10.40;;;2.63;;
74900;SDS011;63461;51.416;6.758;2023-11-19T02:43:10;6.70;;;2.90;;
74900;SDS011;63461;51.416;6.758;2023-11-19T02:45:59;11.87;;;3.10;;
74900;SDS011;63461;51.416;6.758;2023-11-19T02:57:37;5.97;;;2.17;;
74900;SDS011;63461;51.416;6.758;2023-11-19T03:01:10;9.27;;;2.97;;
74900;SDS011;63461;51.416;6.758;2023-11-19T03:04:38;9.53;;;2.50;;
74900;SDS011;63461;51.416;6.758;2023-11-19T03:08:36;8.50;;;2.60;;
74900;SDS011;63461;51.416;6.758;2023-11-19T03:11:07;10.10;;;2.37;;
74900;SDS011;63461;51.416;6.758;2023-11-19T04:02:19;20.87;;;2.70;;
74900;SDS011;63461;51.416;6.758;2023-11-19T04:04:51;18.73;;;3.10;;
74900;SDS011;63461;51.416;6.758;2023-11-19T04:07:39;19.73;;;3.10;;
74900;SDS011;63461;51.416;6.758;2023-11-19T04:10:31;14.43;;;2.70;;
74900;SDS011;63461;51.416;6.758;2023-11-19T04:17:19;19.57;;;3.57;;
74900;SDS011;63461;51.416;6.758;2023-11-19T04:20:14;20.77;;;3.63;;
74900;SDS011;63461;51.416;6.758;2023-11-19T04:23:13;16.17;;;2.50;;
74900;SDS011;63461;51.416;6.758;2023-11-19T04:26:07;22.37;;;3.10;;
74900;SDS011;63461;51.416;6.758;2023-11-19T04:37:18;24.07;;;3.73;;
74900;SDS011;63461;51.416;6.758;2023-11-19T04:40:41;24.23;;;3.60;;
74900;SDS011;63461;51.416;6.758;2023-11-19T04:43:24;28.03;;;3.77;;
74900;SDS011;63461;51.416;6.758;2023-11-19T04:46:03;12.97;;;2.50;;
74900;SDS011;63461;51.416;6.758;2023-11-19T04:49:25;22.50;;;3.70;;
74900;SDS011;63461;51.416;6.758;2023-11-19T05:17:02;24.90;;;3.97;;
74900;SDS011;63461;51.416;6.758;2023-11-19T05:24:09;28.10;;;3.07;;
74900;SDS011;63461;51.416;6.758;2023-11-19T05:30:53;22.33;;;3.70;;
74900;SDS011;63461;51.416;6.758;2023-11-19T05:37:02;33.33;;;3.63;;
74900;SDS011;63461;51.416;6.758;2023-11-19T05:39:40;21.70;;;3.37;;
74900;SDS011;63461;51.416;6.758;2023-11-19T05:47:41;20.80;;;3.17;;
74900;SDS011;63461;51.416;6.758;2023-11-19T05:50:10;27.47;;;4.03;;
74900;SDS011;63461;51.416;6.758;2023-11-19T05:53:42;21.57;;;3.93;;
74900;SDS011;63461;51.416;6.758;2023-11-19T05:56:12;16.30;;;3.10;;
74900;SDS011;63461;51.416;6.758;2023-11-19T05:58:39;15.30;;;2.77;;
74900;SDS011;63461;51.416;6.758;2023-11-19T06:01:17;32.40;;;4.10;;
74900;SDS011;63461;51.416;6.758;2023-11-19T06:03:42;16.70;;;3.47;;
74900;SDS011;63461;51.416;6.758;2023-11-19T06:06:08;31.27;;;3.57;;
74900;SDS011;63461;51.416;6.758;2023-11-19T06:08:34;17.90;;;3.17;;
74900;SDS011;63461;51.416;6.758;2023-11-19T06:11:00;24.23;;;3.57;;
74900;SDS011;63461;51.416;6.758;2023-11-19T06:13:27;20.70;;;3.87;;
74900;SDS011;63461;51.416;6.758;2023-11-19T06:15:52;21.87;;;2.50;;
74900;SDS011;63461;51.416;6.758;2023-11-19T06:18:29;26.93;;;3.67;;
74900;SDS011;63461;51.416;6.758;2023-11-19T06:21:12;27.23;;;3.23;;
74900;SDS011;63461;51.416;6.758;2023-11-19T06:23:38;23.07;;;4.10;;
74900;SDS011;63461;51.416;6.758;2023-11-19T06:26:07;27.57;;;3.83;;
74900;SDS011;63461;51.416;6.758;2023-11-19T06:28:40;26.03;;;3.23;;
74900;SDS011;63461;51.416;6.758;2023-11-19T06:31:09;22.67;;;3.90;;
74900;SDS011;63461;51.416;6.758;2023-11-19T06:33:41;22.70;;;3.63;;
74900;SDS011;63461;51.416;6.758;2023-11-19T06:36:29;25.67;;;3.90;;
74900;SDS011;63461;51.416;6.758;2023-11-19T06:42:46;30.37;;;3.13;;
74900;SDS011;63461;51.416;6.758;2023-11-19T06:48:32;20.87;;;2.83;;
74900;SDS011;63461;51.416;6.758;2023-11-19T06:59:28;32.40;;;4.20;;
74900;SDS011;63461;51.416;6.758;2023-11-19T07:01:55;26.70;;;3.43;;
74900;SDS011;63461;51.416;6.758;2023-11-19T07:04:21;31.93;;;3.43;;
74900;SDS011;63461;51.416;6.758;2023-11-19T07:06:47;24.70;;;3.50;;
74900;SDS011;63461;51.416;6.758;2023-11-19T07:09:14;28.10;;;4.13;;
74900;SDS011;63461;51.416;6.758;2023-11-19T07:11:40;31.67;;;3.27;;
74900;SDS011;63461;51.416;6.758;2023-11-19T07:14:07;29.80;;;4.13;;
74900;SDS011;63461;51.416;6.758;2023-11-19T07:16:34;25.03;;;3.83;;
74900;SDS011;63461;51.416;6.758;2023-11-19T07:19:02;25.13;;;3.57;;
74900;SDS011;63461;51.416;6.758;2023-11-19T07:21:28;21.20;;;2.93;;
74900;SDS011;63461;51.416;6.758;2023-11-19T07:23:54;30.20;;;4.77;;
74900;SDS011;63461;51.416;6.758;2023-11-19T07:26:21;20.63;;;3.13;;
74900;SDS011;63461;51.416;6.758;2023-11-19T07:28:47;24.23;;;3.53;;
74900;SDS011;63461;51.416;6.758;2023-11-19T07:31:14;30.43;;;3.93;;
74900;SDS011;63461;51.416;6.758;2023-11-19T07:33:40;18.50;;;3.10;;
74900;SDS011;63461;51.416;6.758;2023-11-19T07:36:08;28.20;;;3.63;;
74900;SDS011;63461;51.416;6.758;2023-11-19T07:38:34;26.73;;;3.27;;
74900;SDS011;63461;51.416;6.758;2023-11-19T07:41:00;21.50;;;4.00;;
74900;SDS011;63461;51.416;6.758;2023-11-19T07:43:26;25.03;;;3.80;;
74900;SDS011;63461;51.416;6.758;2023-11-19T07:45:52;31.40;;;3.43;;
74900;SDS011;63461;51.416;6.758;2023-11-19T07:48:18;30.53;;;3.60;;
74900;SDS011;63461;51.416;6.758;2023-11-19T07:50:54;33.00;;;3.53;;
74900;SDS011;63461;51.416;6.758;2023-11-19T07:53:50;25.47;;;3.30;;
74900;SDS011;63461;51.416;6.758;2023-11-19T07:56:19;26.07;;;3.83;;
74900;SDS011;63461;51.416;6.758;2023-11-19T07:58:54;24.43;;;3.13;;
74900;SDS011;63461;51.416;6.758;2023-11-19T08:01:20;22.43;;;3.10;;
74900;SDS011;63461;51.416;6.758;2023-11-19T08:03:52;24.23;;;3.83;;
74900;SDS011;63461;51.416;6.758;2023-11-19T08:06:39;27.30;;;4.20;;
74900;SDS011;63461;51.416;6.758;2023-11-19T08:09:07;28.53;;;3.77;;
74900;SDS011;63461;51.416;6.758;2023-11-19T08:11:49;24.73;;;4.20;;
74900;SDS011;63461;51.416;6.758;2023-11-19T08:14:30;25.20;;;3.10;;
74900;SDS011;63461;51.416;6.758;2023-11-19T08:17:02;33.80;;;3.67;;
74900;SDS011;63461;51.416;6.758;2023-11-19T08:19:28;27.17;;;3.80;;
74900;SDS011;63461;51.416;6.758;2023-11-19T08:21:55;32.33;;;4.73;;
74900;SDS011;63461;51.416;6.758;2023-11-19T08:24:21;33.50;;;4.33;;
74900;SDS011;63461;51.416;6.758;2023-11-19T08:26:51;24.77;;;3.67;;
74900;SDS011;63461;51.416;6.758;2023-11-19T08:29:20;19.63;;;3.50;;
74900;SDS011;63461;51.416;6.758;2023-11-19T08:31:50;35.63;;;4.50;;
74900;SDS011;63461;51.416;6.758;2023-11-19T08:34:18;32.87;;;4.33;;
74900;SDS011;63461;51.416;6.758;2023-11-19T08:36:44;28.07;;;4.37;;
74900;SDS011;63461;51.416;6.758;2023-11-19T08:39:11;22.67;;;4.47;;
74900;SDS011;63461;51.416;6.758;2023-11-19T08:41:39;26.07;;;4.50;;
74900;SDS011;63461;51.416;6.758;2023-11-19T08:44:07;26.03;;;3.87;;
74900;SDS011;63461;51.416;6.758;2023-11-19T08:46:33;32.80;;;5.20;;
74900;SDS011;63461;51.416;6.758;2023-11-19T08:49:01;40.57;;;4.83;;
74900;SDS011;63461;51.416;6.758;2023-11-19T08:51:28;25.10;;;4.40;;
74900;SDS011;63461;51.416;6.758;2023-11-19T08:53:56;29.70;;;4.67;;
74900;SDS011;63461;51.416;6.758;2023-11-19T08:56:23;34.47;;;4.53;;
74900;SDS011;63461;51.416;6.758;2023-11-19T08:58:48;28.73;;;3.47;;
74900;SDS011;63461;51.416;6.758;2023-11-19T09:01:15;27.00;;;3.83;;
74900;SDS011;63461;51.416;6.758;2023-11-19T09:03:41;27.30;;;3.43;;
74900;SDS011;63461;51.416;6.758;2023-11-19T09:06:07;37.83;;;4.07;;
74900;SDS011;63461;51.416;6.758;2023-11-19T09:08:36;23.20;;;3.73;;
74900;SDS011;63461;51.416;6.758;2023-11-19T09:11:06;23.20;;;3.30;;
74900;SDS011;63461;51.416;6.758;2023-11-19T09:13:41;26.50;;;4.53;;
74900;SDS011;63461;51.416;6.758;2023-11-19T09:16:11;24.57;;;4.10;;
74900;SDS011;63461;51.416;6.758;2023-11-19T09:18:40;34.53;;;4.97;;
74900;SDS011;63461;51.416;6.758;2023-11-19T09:21:06;35.63;;;4.70;;
74900;SDS011;63461;51.416;6.758;2023-11-19T09:23:36;24.27;;;3.50;;
74900;SDS011;63461;51.416;6.758;2023-11-19T09:26:05;32.90;;;4.77;;
74900;SDS011;63461;51.416;6.758;2023-11-19T09:28:33;22.73;;;3.73;;
74900;SDS011;63461;51.416;6.758;2023-11-19T09:31:01;19.90;;;3.57;;
74900;SDS011;63461;51.416;6.758;2023-11-19T09:33:48;37.67;;;4.40;;
74900;SDS011;63461;51.416;6.758;2023-11-19T09:36:19;25.10;;;3.07;;
74900;SDS011;63461;51.416;6.758;2023-11-19T09:38:50;24.67;;;3.70;;
74900;SDS011;63461;51.416;6.758;2023-11-19T09:41:16;28.87;;;4.50;;
74900;SDS011;63461;51.416;6.758;2023-11-19T09:43:54;37.07;;;4.37;;
74900;SDS011;63461;51.416;6.758;2023-11-19T09:46:22;23.80;;;3.20;;
74900;SDS011;63461;51.416;6.758;2023-11-19T09:48:50;22.87;;;3.83;;
74900;SDS011;63461;51.416;6.758;2023-11-19T09:51:20;32.67;;;4.53;;
74900;SDS011;63461;51.416;6.758;2023-11-19T09:53:47;24.20;;;4.07;;
74900;SDS011;63461;51.416;6.758;2023-11-19T09:56:16;34.50;;;4.43;;
74900;SDS011;63461;51.416;6.758;2023-11-19T09:58:51;27.37;;;4.03;;
74900;SDS011;63461;51.416;6.758;2023-11-19T10:01:18;22.70;;;3.70;;
74900;SDS011;63461;51.416;6.758;2023-11-19T10:03:51;24.80;;;2.93;;
74900;SDS011;63461;51.416;6.758;2023-11-19T10:06:20;27.40;;;3.97;;
74900;SDS011;63461;51.416;6.758;2023-11-19T10:08:50;26.77;;;3.83;;
74900;SDS011;63461;51.416;6.758;2023-11-19T10:11:23;26.60;;;3.83;;
74900;SDS011;63461;51.416;6.758;2023-11-19T10:13:54;33.23;;;4.47;;
74900;SDS011;63461;51.416;6.758;2023-11-19T10:16:34;21.67;;;3.67;;
74900;SDS011;63461;51.416;6.758;2023-11-19T10:19:05;22.23;;;3.40;;
74900;SDS011;63461;51.416;6.758;2023-11-19T10:21:34;28.53;;;4.33;;
74900;SDS011;63461;51.416;6.758;2023-11-19T10:24:04;14.33;;;2.83;;
74900;SDS011;63461;51.416;6.758;2023-11-19T10:26:30;33.37;;;4.30;;
74900;SDS011;63461;51.416;6.758;2023-11-19T10:29:04;29.33;;;4.17;;
74900;SDS011;63461;51.416;6.758;2023-11-19T10:31:55;25.10;;;4.00;;
74900;SDS011;63461;51.416;6.758;2023-11-19T10:34:26;28.07;;;3.70;;
74900;SDS011;63461;51.416;6.758;2023-11-19T10:36:55;24.27;;;3.70;;
74900;SDS011;63461;51.416;6.758;2023-11-19T10:39:52;24.30;;;3.80;;
74900;SDS011;63461;51.416;6.758;2023-11-19T10:42:21;23.23;;;2.90;;
74900;SDS011;63461;51.416;6.758;2023-11-19T10:44:56;17.90;;;2.80;;
74900;SDS011;63461;51.416;6.758;2023-11-19T10:47:28;30.10;;;3.83;;
74900;SDS011;63461;51.416;6.758;2023-11-19T10:50:00;21.23;;;2.93;;
74900;SDS011;63461;51.416;6.758;2023-11-19T10:52:29;26.93;;;3.43;;
74900;SDS011;63461;51.416;6.758;2023-11-19T11:36:27;20.20;;;3.57;;
74900;SDS011;63461;51.416;6.758;2023-11-19T11:40:04;31.60;;;4.37;;
74900;SDS011;63461;51.416;6.758;2023-11-19T11:42:42;19.57;;;2.50;;
74900;SDS011;63461;51.416;6.758;2023-11-19T11:49:46;23.80;;;3.23;;
74900;SDS011;63461;51.416;6.758;2023-11-19T11:52:27;17.40;;;2.20;;
74900;SDS011;63461;51.416;6.758;2023-11-19T12:03:33;19.47;;;3.43;;
74900;SDS011;63461;51.416;6.758;2023-11-19T12:11:17;20.20;;;3.35;;
74900;SDS011;63461;51.416;6.758;2023-11-19T12:14:03;16.53;;;3.37;;
74900;SDS011;63461;51.416;6.758;2023-11-19T12:16:34;23.77;;;4.27;;
74900;SDS011;63461;51.416;6.758;2023-11-19T12:23:22;12.17;;;3.10;;
74900;SDS011;63461;51.416;6.758;2023-11-19T12:29:57;23.93;;;4.07;;
74900;SDS011;63461;51.416;6.758;2023-11-19T12:40:42;23.00;;;4.90;;
74900;SDS011;63461;51.416;6.758;2023-11-19T13:39:16;17.40;;;2.90;;
74900;SDS011;63461;51.416;6.758;2023-11-19T13:52:54;17.53;;;2.73;;
74900;SDS011;63461;51.416;6.758;2023-11-19T13:59:46;16.60;;;3.40;;
74900;SDS011;63461;51.416;6.758;2023-11-19T14:31:53;17.53;;;2.83;;
74900;SDS011;63461;51.416;6.758;2023-11-19T14:34:48;25.07;;;3.40;;
74900;SDS011;63461;51.416;6.758;2023-11-19T14:37:46;16.50;;;2.77;;
74900;SDS011;63461;51.416;6.758;2023-11-19T14:40:45;17.13;;;3.13;;
74900;SDS011;63461;51.416;6.758;2023-11-19T14:43:50;25.77;;;3.87;;
74900;SDS011;63461;51.416;6.758;2023-11-19T14:46:40;22.37;;;3.87;;
74900;SDS011;63461;51.416;6.758;2023-11-19T14:49:45;21.67;;;4.13;;
74900;SDS011;63461;51.416;6.758;2023-11-19T14:53:46;16.53;;;3.10;;
74900;SDS011;63461;51.416;6.758;2023-11-19T15:04:16;18.43;;;2.87;;
74900;SDS011;63461;51.416;6.758;2023-11-19T15:07:18;17.73;;;2.97;;
74900;SDS011;63461;51.416;6.758;2023-11-19T15:16:00;18.93;;;3.10;;
74900;SDS011;63461;51.416;6.758;2023-11-19T15:19:18;17.47;;;3.07;;
74900;SDS011;63461;51.416;6.758;2023-11-19T15:23:24;17.80;;;2.93;;
74900;SDS011;63461;51.416;6.758;2023-11-19T15:26:22;24.77;;;3.17;;
74900;SDS011;63461;51.416;6.758;2023-11-19T15:28:54;19.57;;;2.80;;
74900;SDS011;63461;51.416;6.758;2023-11-19T15:31:49;23.40;;;3.47;;
74900;SDS011;63461;51.416;6.758;2023-11-19T15:34:17;21.70;;;2.80;;
74900;SDS011;63461;51.416;6.758;2023-11-19T15:36:47;13.80;;;2.93;;
74900;SDS011;63461;51.416;6.758;2023-11-19T15:43:37;19.10;;;3.67;;
74900;SDS011;63461;51.416;6.758;2023-11-19T15:46:39;20.27;;;2.97;;
74900;SDS011;63461;51.416;6.758;2023-11-19T15:49:48;24.07;;;4.43;;
74900;SDS011;63461;51.416;6.758;2023-11-19T15:52:36;26.47;;;2.93;;
74900;SDS011;63461;51.416;6.758;2023-11-19T15:55:21;26.40;;;3.20;;
74900;SDS011;63461;51.416;6.758;2023-11-19T15:57:53;21.53;;;3.07;;
74900;SDS011;63461;51.416;6.758;2023-11-19T16:00:28;17.13;;;2.73;;
74900;SDS011;63461;51.416;6.758;2023-11-19T16:03:04;20.93;;;3.70;;
74900;SDS011;63461;51.416;6.758;2023-11-19T16:06:01;22.97;;;3.10;;
74900;SDS011;63461;51.416;6.758;2023-11-19T16:08:37;16.83;;;3.00;;
74900;SDS011;63461;51.416;6.758;2023-11-19T16:12:41;12.67;;;2.50;;
74900;SDS011;63461;51.416;6.758;2023-11-19T16:15:45;26.23;;;3.67;;
74900;SDS011;63461;51.416;6.758;2023-11-19T16:18:30;19.73;;;2.87;;
74900;SDS011;63461;51.416;6.758;2023-11-19T16:21:23;19.50;;;3.23;;
74900;SDS011;63461;51.416;6.758;2023-11-19T16:24:38;17.00;;;2.50;;
74900;SDS011;63461;51.416;6.758;2023-11-19T16:27:09;18.43;;;3.00;;
74900;SDS011;63461;51.416;6.758;2023-11-19T16:33:13;24.27;;;3.00;;
74900;SDS011;63461;51.416;6.758;2023-11-19T16:35:47;21.33;;;3.20;;
74900;SDS011;63461;51.416;6.758;2023-11-19T16:41:43;24.03;;;3.40;;
74900;SDS011;63461;51.416;6.758;2023-11-19T16:48:28;24.73;;;3.83;;
74900;SDS011;63461;51.416;6.758;2023-11-19T16:51:53;24.50;;;3.10;;
74900;SDS011;63461;51.416;6.758;2023-11-19T16:55:35;21.37;;;3.37;;
74900;SDS011;63461;51.416;6.758;2023-11-19T17:10:02;18.37;;;3.23;;
74900;SDS011;63461;51.416;6.758;2023-11-19T17:14:01;24.20;;;3.57;;
74900;SDS011;63461;51.416;6.758;2023-11-19T17:17:53;19.37;;;3.17;;
74900;SDS011;63461;51.416;6.758;2023-11-19T17:21:53;20.63;;;3.90;;
74900;SDS011;63461;51.416;6.758;2023-11-19T17:25:19;22.80;;;3.27;;
74900;SDS011;63461;51.416;6.758;2023-11-19T17:31:48;23.80;;;3.03;;
74900;SDS011;63461;51.416;6.758;2023-11-19T17:34:19;26.30;;;4.00;;
74900;SDS011;63461;51.416;6.758;2023-11-19T17:37:08;21.03;;;3.10;;
74900;SDS011;63461;51.416;6.758;2023-11-19T17:40:42;32.20;;;3.40;;
74900;SDS011;63461;51.416;6.758;2023-11-19T17:43:56;24.80;;;3.30;;
74900;SDS011;63461;51.416;6.758;2023-11-19T17:50:04;21.50;;;3.63;;
74900;SDS011;63461;51.416;6.758;2023-11-19T17:52:39;21.03;;;3.27;;
74900;SDS011;63461;51.416;6.758;2023-11-19T17:55:43;21.70;;;3.40;;
74900;SDS011;63461;51.416;6.758;2023-11-19T17:58:56;24.73;;;3.87;;
74900;SDS011;63461;51.416;6.758;2023-11-19T18:01:44;26.23;;;3.77;;
74900;SDS011;63461;51.416;6.758;2023-11-19T18:04:33;29.77;;;3.67;;
74900;SDS011;63461;51.416;6.758;2023-11-19T18:07:43;24.07;;;4.00;;
74900;SDS011;63461;51.416;6.758;2023-11-19T18:10:24;19.47;;;3.63;;
74900;SDS011;63461;51.416;6.758;2023-11-19T18:13:31;23.07;;;3.50;;
74900;SDS011;63461;51.416;6.758;2023-11-19T18:16:02;21.13;;;3.87;;
74900;SDS011;63461;51.416;6.758;2023-11-19T18:18:43;35.10;;;4.00;;
74900;SDS011;63461;51.416;6.758;2023-11-19T18:21:23;23.13;;;3.20;;
74900;SDS011;63461;51.416;6.758;2023-11-19T18:25:27;19.90;;;2.63;;
74900;SDS011;63461;51.416;6.758;2023-11-19T18:28:24;16.23;;;2.73;;
74900;SDS011;63461;51.416;6.758;2023-11-19T18:30:59;15.10;;;3.13;;
74900;SDS011;63461;51.416;6.758;2023-11-19T18:33:28;15.77;;;3.07;;
74900;SDS011;63461;51.416;6.758;2023-11-19T18:35:54;13.10;;;2.73;;
74900;SDS011;63461;51.416;6.758;2023-11-19T18:38:24;22.20;;;2.80;;
74900;SDS011;63461;51.416;6.758;2023-11-19T18:40:50;17.80;;;3.10;;
74900;SDS011;63461;51.416;6.758;2023-11-19T18:43:16;18.43;;;3.50;;
74900;SDS011;63461;51.416;6.758;2023-11-19T18:45:48;15.37;;;2.20;;
74900;SDS011;63461;51.416;6.758;2023-11-19T18:51:46;16.47;;;2.87;;
74900;SDS011;63461;51.416;6.758;2023-11-19T18:54:12;23.53;;;3.30;;
74900;SDS011;63461;51.416;6.758;2023-11-19T18:56:50;16.00;;;2.90;;
74900;SDS011;63461;51.416;6.758;2023-11-19T18:59:35;17.37;;;2.47;;
74900;SDS011;63461;51.416;6.758;2023-11-19T19:03:17;15.27;;;2.33;;
74900;SDS011;63461;51.416;6.758;2023-11-19T19:08:46;18.00;;;2.37;;
74900;SDS011;63461;51.416;6.758;2023-11-19T19:11:24;14.30;;;2.40;;
74900;SDS011;63461;51.416;6.758;2023-11-19T19:14:02;19.17;;;2.83;;
74900;SDS011;63461;51.416;6.758;2023-11-19T19:20:46;21.23;;;3.50;;
74900;SDS011;63461;51.416;6.758;2023-11-19T19:37:09;9.73;;;2.17;;
74900;SDS011;63461;51.416;6.758;2023-11-19T19:39:52;14.43;;;2.07;;
74900;SDS011;63461;51.416;6.758;2023-11-19T19:42:27;11.83;;;2.50;;
74900;SDS011;63461;51.416;6.758;2023-11-19T19:45:07;13.43;;;2.70;;
74900;SDS011;63461;51.416;6.758;2023-11-19T19:47:43;12.97;;;2.23;;
74900;SDS011;63461;51.416;6.758;2023-11-19T19:50:11;12.33;;;2.23;;
74900;SDS011;63461;51.416;6.758;2023-11-19T19:52:49;15.83;;;2.80;;
74900;SDS011;63461;51.416;6.758;2023-11-19T19:55:15;17.90;;;2.60;;
74900;SDS011;63461;51.416;6.758;2023-11-19T19:57:46;11.67;;;2.37;;
74900;SDS011;63461;51.416;6.758;2023-11-19T20:00:16;12.67;;;2.60;;
74900;SDS011;63461;51.416;6.758;2023-11-19T20:03:03;15.77;;;2.50;;
74900;SDS011;63461;51.416;6.758;2023-11-19T20:09:46;15.57;;;1.90;;
74900;SDS011;63461;51.416;6.758;2023-11-19T20:12:36;6.40;;;1.70;;
74900;SDS011;63461;51.416;6.758;2023-11-19T20:15:14;14.07;;;2.30;;
74900;SDS011;63461;51.416;6.758;2023-11-19T20:17:58;7.20;;;2.43;;
74900;SDS011;63461;51.416;6.758;2023-11-19T20:20:36;10.90;;;2.00;;
74900;SDS011;63461;51.416;6.758;2023-11-19T20:23:14;12.83;;;2.30;;
74900;SDS011;63461;51.416;6.758;2023-11-19T20:25:53;11.03;;;1.80;;
74900;SDS011;63461;51.416;6.758;2023-11-19T20:28:27;12.70;;;2.10;;
74900;SDS011;63461;51.416;6.758;2023-11-19T20:30:58;14.47;;;1.90;;
74900;SDS011;63461;51.416;6.758;2023-11-19T20:33:30;10.23;;;1.93;;
74900;SDS011;63461;51.416;6.758;2023-11-19T20:35:59;10.43;;;1.93;;
74900;SDS011;63461;51.416;6.758;2023-11-19T20:38:45;7.87;;;1.63;;
74900;SDS011;63461;51.416;6.758;2023-11-19T20:41:18;12.07;;;2.10;;
74900;SDS011;63461;51.416;6.758;2023-11-19T20:43:44;10.60;;;2.20;;
74900;SDS011;63461;51.416;6.758;2023-11-19T20:46:46;11.93;;;2.03;;
74900;SDS011;63461;51.416;6.758;2023-11-19T20:56:20;13.80;;;2.27;;
74900;SDS011;63461;51.416;6.758;2023-11-19T21:02:28;13.10;;;2.87;;
74900;SDS011;63461;51.416;6.758;2023-11-19T21:05:19;12.73;;;2.43;;
74900;SDS011;63461;51.416;6.758;2023-11-19T21:08:08;11.73;;;2.47;;
74900;SDS011;63461;51.416;6.758;2023-11-19T21:10:42;10.03;;;2.50;;
74900;SDS011;63461;51.416;6.758;2023-11-19T21:13:13;17.50;;;3.10;;
74900;SDS011;63461;51.416;6.758;2023-11-19T21:16:15;10.27;;;2.37;;
74900;SDS011;63461;51.416;6.758;2023-11-19T21:19:13;8.60;;;2.37;;
74900;SDS011;63461;51.416;6.758;2023-11-19T21:22:08;12.07;;;2.53;;
74900;SDS011;63461;51.416;6.758;2023-11-19T21:32:09;13.53;;;2.20;;
74900;SDS011;63461;51.416;6.758;2023-11-19T21:34:48;11.60;;;1.77;;
74900;SDS011;63461;51.416;6.758;2023-11-19T21:39:07;7.83;;;1.60;;
74900;SDS011;63461;51.416;6.758;2023-11-19T21:51:18;8.90;;;1.93;;
74900;SDS011;63461;51.416;6.758;2023-11-19T21:54:10;8.70;;;1.77;;
74900;SDS011;63461;51.416;6.758;2023-11-19T21:57:43;7.63;;;1.17;;
74900;SDS011;63461;51.416;6.758;2023-11-19T22:08:31;11.20;;;2.00;;
74900;SDS011;63461;51.416;6.758;2023-11-19T22:30:05;10.80;;;2.53;;
74900;SDS011;63461;51.416;6.758;2023-11-19T22:32:55;7.23;;;1.80;;
74900;SDS011;63461;51.416;6.758;2023-11-19T22:43:37;8.70;;;1.33;;
74900;SDS011;63461;51.416;6.758;2023-11-19T22:46:58;9.17;;;2.10;;
74900;SDS011;63461;51.416;6.758;2023-11-19T22:50:31;15.10;;;1.63;;
74900;SDS011;63461;51.416;6.758;2023-11-19T22:54:15;11.27;;;2.40;;
74900;SDS011;63461;51.416;6.758;2023-11-19T22:57:22;12.60;;;2.40;;
74900;SDS011;63461;51.416;6.758;2023-11-19T23:04:04;11.23;;;1.73;;
74900;SDS011;63461;51.416;6.758;2023-11-19T23:07:00;5.17;;;1.17;;
74900;SDS011;63461;51.416;6.758;2023-11-19T23:09:50;8.27;;;1.40;;
74900;SDS011;63461;51.416;6.758;2023-11-19T23:13:11;4.63;;;1.20;;
74900;SDS011;63461;51.416;6.758;2023-11-19T23:17:07;6.10;;;1.53;;
74900;SDS011;63461;51.416;6.758;2023-11-19T23:24:47;11.77;;;2.50;;
74900;SDS011;63461;51.416;6.758;2023-11-19T23:27:50;5.70;;;1.30;;
74900;SDS011;63461;51.416;6.758;2023-11-19T23:34:32;7.57;;;1.73;;
74900;SDS011;63461;51.416;6.758;2023-11-19T23:48:28;8.97;;;1.23;;
74900;SDS011;63461;51.416;6.758;2023-11-19T23:55:29;12.10;;;2.00;;
